Armstrong, Pennsylvania
Current Conditions -  °F | °C
As of 6:54 PM on Sunday 21 Dec 2014 (Local Time) from KIPT Reporting Station
Clear Clear  
Wind Chill: 28°   Ceiling: Unl
Heat Index: 28°   Visibility: 10mi
Dew Point: 20°   Wind: 3mph
Humidity: 72%   Direction: 300°WNW
Pressure: 30.32"   Gusts: NA
Location:  41.2285°N, 77.014°W
Report Text: KIPT 212354Z 30003KT 10SM CLR M02/M07 A3032 RMK AO2 SLP275 T10221067 10022 21028 53013
Loading
Personal Weather Stations






























Interactive Weather Map New forecast layout! Learn more

10-Day Weather Forecast

Advertisements
Track Severe Weather on mobile